Time;durP1;ratioP1;P1;durP2;ratioP2;P2;SDS_P1;SDS_P2;PMS_P1;PMS_P2;Temp;Humidity;BMP_temperature;BMP_pressure;BME280_temperature;BME280_humidity;BME280_pressure;Samples;Min_cycle;Max_cycle;Signal;HPM_P1;HPM_P2
2022/06/03 00:03:09;;;;;;;3.40;2.77;;;8.90;99.90;;;;;;6005087;23;20186;-90
2022/06/03 00:06:20;;;;;;;4.53;2.40;;;8.80;99.90;;;;;;6092507;23;20183;-89
2022/06/03 00:09:37;;;;;;;6.00;2.57;;;8.80;99.90;;;;;;6091491;23;20235;-90
2022/06/03 00:12:52;;;;;;;3.00;2.43;;;8.70;99.90;;;;;;6092299;23;20184;-90
2022/06/03 00:15:49;;;;;;;2.80;2.47;;;8.70;99.90;;;;;;6044218;23;20194;-90
2022/06/03 00:18:50;;;;;;;5.13;2.53;;;8.70;99.90;;;;;;6093299;23;20180;-90
2022/06/03 00:22:05;;;;;;;3.40;2.40;;;8.60;99.90;;;;;;6093195;23;20268;-92
2022/06/03 00:25:01;;;;;;;2.50;2.30;;;8.70;99.90;;;;;;6091668;23;20670;-91
2022/06/03 00:28:14;;;;;;;4.10;2.47;;;8.70;99.90;;;;;;6092775;23;20184;-90
2022/06/03 00:31:17;;;;;;;5.00;2.40;;;8.70;99.90;;;;;;6092296;23;20566;-91
2022/06/03 00:34:15;;;;;;;3.00;2.47;;;8.70;99.90;;;;;;6092246;23;20635;-91
2022/06/03 00:37:11;;;;;;;4.87;2.27;;;8.80;99.90;;;;;;6092419;23;20179;-91
2022/06/03 00:40:08;;;;;;;2.43;2.10;;;8.80;99.90;;;;;;6091981;23;20635;-91
2022/06/03 00:43:18;;;;;;;2.67;1.97;;;8.80;99.90;;;;;;6092850;23;20374;-90
2022/06/03 00:46:19;;;;;;;2.30;2.10;;;8.70;99.90;;;;;;6092087;23;20627;-89
2022/06/03 00:49:15;;;;;;;3.93;2.20;;;8.70;99.90;;;;;;6091165;23;20248;-91
2022/06/03 00:52:22;;;;;;;2.20;2.00;;;8.70;99.90;;;;;;6091888;23;20294;-90
2022/06/03 00:55:21;;;;;;;2.03;1.90;;;8.70;99.90;;;;;;6091462;23;20188;-90
2022/06/03 00:58:20;;;;;;;2.80;1.70;;;8.70;99.90;;;;;;6093028;23;20270;-90
2022/06/03 01:01:11;;;;;;;3.13;2.23;;;8.70;99.90;;;;;;6094175;23;20214;-90
2022/06/03 01:04:17;;;;;;;3.33;1.80;;;8.70;99.90;;;;;;6091389;23;20215;-89
2022/06/03 01:07:11;;;;;;;2.30;1.90;;;8.70;99.90;;;;;;6093719;23;20294;-89
2022/06/03 01:10:07;;;;;;;2.37;2.00;;;8.70;99.90;;;;;;6091724;23;20186;-89
2022/06/03 01:13:06;;;;;;;3.40;1.80;;;8.70;99.90;;;;;;6093625;23;20293;-90
2022/06/03 01:15:56;;;;;;;5.00;2.07;;;8.50;99.90;;;;;;6091482;23;20517;-90
2022/06/03 01:18:47;;;;;;;3.33;2.20;;;8.50;99.90;;;;;;6092521;23;20238;-89
2022/06/03 01:21:40;;;;;;;2.70;1.57;;;8.50;99.90;;;;;;6092396;23;20191;-90
2022/06/03 01:24:51;;;;;;;2.63;1.80;;;8.60;99.90;;;;;;6092899;23;20634;-90
2022/06/03 01:28:16;;;;;;;3.20;1.90;;;8.50;99.90;;;;;;6091907;23;20211;-90
2022/06/03 01:31:30;;;;;;;9.57;1.90;;;8.40;99.90;;;;;;6093037;23;20188;-89
2022/06/03 01:34:26;;;;;;;2.03;1.83;;;8.50;99.90;;;;;;6092929;23;20568;-90
2022/06/03 01:37:16;;;;;;;2.90;2.00;;;8.50;99.90;;;;;;6092319;23;20255;-89
2022/06/03 01:40:13;;;;;;;2.10;1.80;;;8.50;99.90;;;;;;6091089;23;20323;-89
2022/06/03 01:43:24;;;;;;;2.00;1.87;;;8.60;99.90;;;;;;6091358;23;20183;-89
2022/06/03 01:46:25;;;;;;;2.80;2.10;;;8.60;99.90;;;;;;6092102;23;20191;-87
2022/06/03 01:49:30;;;;;;;2.83;1.90;;;8.50;99.90;;;;;;6091724;23;20208;-89
2022/06/03 01:52:45;;;;;;;2.80;1.90;;;8.70;99.90;;;;;;6091502;23;20186;-89
2022/06/03 01:56:03;;;;;;;4.60;1.90;;;8.70;99.90;;;;;;6092398;23;20691;-89
2022/06/03 01:59:36;;;;;;;7.23;2.23;;;8.70;99.90;;;;;;6051496;23;20192;-90
2022/06/03 02:02:49;;;;;;;2.20;2.00;;;8.70;99.90;;;;;;6028601;23;20201;-89
2022/06/03 02:05:59;;;;;;;2.47;2.00;;;8.60;99.90;;;;;;6088171;23;20257;-89
2022/06/03 02:09:15;;;;;;;2.30;2.10;;;8.50;99.90;;;;;;6091252;23;20186;-90
2022/06/03 02:12:06;;;;;;;3.50;2.80;;;8.50;99.90;;;;;;6059635;23;20323;-90
2022/06/03 02:15:26;;;;;;;5.13;2.53;;;8.60;99.90;;;;;;6093065;23;20618;-90
2022/06/03 02:18:39;;;;;;;3.43;2.40;;;8.70;99.90;;;;;;6092295;23;20505;-89
2022/06/03 02:21:44;;;;;;;2.73;2.10;;;8.70;99.90;;;;;;6091825;23;20232;-88
2022/06/03 02:24:55;;;;;;;2.80;2.23;;;8.40;99.90;;;;;;6091282;23;20200;-87
2022/06/03 02:27:53;;;;;;;3.83;2.30;;;8.50;99.90;;;;;;6093308;23;20190;-89
2022/06/03 02:31:23;;;;;;;3.70;2.03;;;8.50;99.90;;;;;;6093366;23;20834;-89
2022/06/03 02:34:30;;;;;;;3.30;2.40;;;8.60;99.90;;;;;;6094793;23;20187;-89
2022/06/03 02:37:45;;;;;;;3.80;2.43;;;8.50;99.90;;;;;;6094845;23;20187;-90
2022/06/03 02:40:40;;;;;;;7.70;2.57;;;8.50;99.90;;;;;;6094138;23;20295;-90
2022/06/03 02:43:50;;;;;;;3.47;2.57;;;8.50;99.90;;;;;;6094963;23;20186;-90
2022/06/03 02:46:52;;;;;;;2.73;2.20;;;8.60;99.90;;;;;;6093473;23;20190;-90
2022/06/03 02:50:24;;;;;;;3.00;2.40;;;8.60;99.90;;;;;;6094908;23;20189;-90
2022/06/03 02:53:36;;;;;;;6.97;2.30;;;8.60;99.90;;;;;;6030457;23;20188;-90
2022/06/03 02:56:50;;;;;;;3.47;2.50;;;8.60;99.90;;;;;;6092913;23;20188;-90
2022/06/03 03:00:09;;;;;;;3.53;2.50;;;8.60;99.90;;;;;;6058592;23;20192;-90
2022/06/03 03:03:09;;;;;;;4.13;2.07;;;8.70;99.90;;;;;;6094510;23;20672;-91
2022/06/03 03:06:25;;;;;;;3.23;2.10;;;8.60;99.90;;;;;;6094141;23;20202;-89
2022/06/03 03:09:33;;;;;;;3.17;2.40;;;8.70;99.90;;;;;;6093489;23;20627;-89
2022/06/03 03:12:50;;;;;;;4.27;2.70;;;8.60;99.90;;;;;;6092103;23;20180;-89
2022/06/03 03:15:59;;;;;;;4.20;2.70;;;8.70;99.90;;;;;;6092417;23;20615;-91
2022/06/03 03:19:07;;;;;;;5.27;2.50;;;8.70;99.90;;;;;;6093762;23;20184;-92
2022/06/03 03:22:28;;;;;;;4.47;2.27;;;8.90;99.90;;;;;;6092633;23;20184;-91
2022/06/03 03:25:44;;;;;;;2.60;2.40;;;9.00;99.90;;;;;;6094112;23;20210;-88
2022/06/03 03:28:50;;;;;;;3.00;2.63;;;9.00;99.90;;;;;;6094828;23;20187;-89
2022/06/03 03:32:04;;;;;;;7.10;2.83;;;9.00;99.90;;;;;;6092499;23;20191;-90
2022/06/03 03:35:28;;;;;;;2.63;2.30;;;9.00;99.90;;;;;;6094414;23;20176;-91
2022/06/03 03:38:51;;;;;;;2.90;2.50;;;9.10;99.90;;;;;;6091957;23;20214;-90
2022/06/03 03:41:58;;;;;;;2.73;2.30;;;9.30;99.90;;;;;;6093376;23;20615;-90
2022/06/03 03:45:23;;;;;;;5.00;3.03;;;9.30;99.90;;;;;;6093222;23;20203;-91
2022/06/03 03:48:35;;;;;;;3.17;2.73;;;9.50;99.90;;;;;;6091588;23;20236;-90
2022/06/03 03:51:40;;;;;;;2.93;2.50;;;9.60;99.90;;;;;;6091909;23;20235;-91
2022/06/03 03:55:08;;;;;;;4.17;2.77;;;9.80;99.90;;;;;;6093878;23;20564;-90
2022/06/03 04:01:32;;;;;;;5.80;2.80;;;10.00;99.90;;;;;;5083079;28;20802;-66
2022/06/03 04:04:44;;;;;;;5.37;3.23;;;10.50;99.90;;;;;;5021287;28;20326;-67
2022/06/03 04:08:14;;;;;;;10.13;3.30;;;10.70;99.90;;;;;;5085976;28;20223;-65
2022/06/03 04:11:30;;;;;;;4.50;2.67;;;11.00;99.90;;;;;;5083359;28;20205;-65
2022/06/03 04:14:53;;;;;;;4.53;2.83;;;11.10;99.90;;;;;;5078607;28;20308;-65
2022/06/03 04:18:20;;;;;;;4.50;2.73;;;11.50;99.90;;;;;;5087401;28;20674;-65
2022/06/03 04:21:42;;;;;;;4.13;2.77;;;11.70;99.90;;;;;;5083538;28;20201;-65
2022/06/03 04:25:02;;;;;;;6.07;2.63;;;12.00;99.90;;;;;;5056387;28;20293;-65
2022/06/03 04:28:30;;;;;;;8.83;2.77;;;12.20;99.90;;;;;;5092581;28;20212;-65
2022/06/03 04:31:57;;;;;;;5.80;2.57;;;12.50;99.90;;;;;;5095590;28;20559;-65
2022/06/03 04:35:19;;;;;;;6.43;2.37;;;12.70;99.90;;;;;;5069087;28;20203;-65
2022/06/03 04:38:33;;;;;;;5.73;2.50;;;13.00;99.90;;;;;;5067701;28;20224;-65
2022/06/03 04:41:43;;;;;;;4.97;2.63;;;13.20;99.90;;;;;;5084060;28;20334;-65
2022/06/03 04:45:21;;;;;;;4.20;2.60;;;13.40;99.90;;;;;;5082472;28;20288;-65
2022/06/03 04:48:44;;;;;;;6.03;2.77;;;13.60;99.90;;;;;;5076340;28;20207;-65
2022/06/03 04:51:59;;;;;;;4.23;2.20;;;13.80;99.90;;;;;;5081026;28;20210;-65
2022/06/03 04:55:18;;;;;;;2.73;2.10;;;14.00;99.90;;;;;;5075140;28;20292;-65
2022/06/03 04:58:46;;;;;;;2.30;2.10;;;14.30;99.90;;;;;;5078828;28;20276;-65
2022/06/03 05:02:10;;;;;;;2.93;2.07;;;14.50;99.90;;;;;;5057059;28;20296;-65
2022/06/03 05:05:26;;;;;;;4.03;2.30;;;14.70;99.90;;;;;;5076941;28;20247;-65
2022/06/03 05:08:45;;;;;;;3.00;2.20;;;14.80;99.90;;;;;;5080584;28;20202;-65
2022/06/03 05:12:02;;;;;;;32.50;16.87;;;15.00;98.40;;;;;;5072858;28;20198;-65
2022/06/03 05:15:35;;;;;;;3.37;1.97;;;15.10;97.80;;;;;;5050477;28;20230;-65
2022/06/03 05:18:48;;;;;;;2.37;1.70;;;15.30;95.00;;;;;;5063767;28;20204;-65
2022/06/03 05:22:05;;;;;;;3.47;1.80;;;15.40;94.50;;;;;;5066619;28;20227;-65
2022/06/03 05:25:13;;;;;;;3.90;1.90;;;15.50;98.10;;;;;;5062962;28;20197;-65
2022/06/03 05:28:42;;;;;;;3.10;1.73;;;15.70;97.80;;;;;;5062322;28;20242;-65
2022/06/03 05:32:04;;;;;;;3.63;1.60;;;15.90;93.50;;;;;;5067355;28;20574;-65
2022/06/03 05:35:18;;;;;;;3.90;1.80;;;16.00;94.60;;;;;;5065666;28;20633;-65
2022/06/03 05:38:28;;;;;;;3.90;1.90;;;16.10;90.20;;;;;;5060676;28;20240;-65
2022/06/03 05:44:46;;;;;;;3.07;1.50;;;16.30;87.40;;;;;;5055497;28;20280;-65
2022/06/03 05:47:36;;;;;;;5.40;1.70;;;16.30;77.80;;;;;;5064102;28;20211;-65
2022/06/03 05:50:25;;;;;;;3.70;1.70;;;16.50;81.90;;;;;;5062777;28;20246;-65
2022/06/03 05:53:19;;;;;;;2.50;1.87;;;16.60;79.50;;;;;;5046924;28;20394;-65
2022/06/03 05:56:33;;;;;;;2.70;1.93;;;16.70;79.80;;;;;;5062116;28;20199;-65
2022/06/03 05:59:38;;;;;;;3.40;1.80;;;16.80;81.80;;;;;;5059841;28;20665;-65
2022/06/03 06:02:28;;;;;;;2.97;1.93;;;16.90;80.00;;;;;;5048024;28;20210;-65
2022/06/03 06:05:27;;;;;;;7.93;1.80;;;17.00;77.20;;;;;;5041405;28;20197;-65
2022/06/03 06:08:20;;;;;;;6.67;2.40;;;17.10;74.60;;;;;;5047149;28;20574;-65
2022/06/03 06:11:09;;;;;;;5.33;1.80;;;17.20;76.30;;;;;;5058776;28;20193;-65
2022/06/03 06:14:21;;;;;;;6.47;2.00;;;17.30;71.60;;;;;;5063704;28;20200;-65
2022/06/03 06:17:21;;;;;;;7.93;1.90;;;17.30;72.90;;;;;;5052799;28;20203;-65
2022/06/03 06:20:13;;;;;;;6.43;1.87;;;17.50;73.50;;;;;;5061169;28;20244;-65
2022/06/03 06:23:03;;;;;;;2.10;1.60;;;17.60;68.10;;;;;;5064513;28;20710;-65
2022/06/03 06:26:04;;;;;;;6.30;2.20;;;17.70;67.50;;;;;;5064165;28;20209;-65
2022/06/03 06:29:01;;;;;;;3.00;2.10;;;17.70;70.80;;;;;;5064729;28;20277;-65
2022/06/03 06:32:16;;;;;;;2.83;1.60;;;17.70;70.40;;;;;;5065156;28;20665;-65
2022/06/03 06:35:36;;;;;;;1.50;1.40;;;18.00;68.90;;;;;;5056717;28;20208;-65
2022/06/03 06:38:25;;;;;;;2.27;1.50;;;18.20;68.90;;;;;;5034058;28;20231;-65
2022/06/03 06:41:28;;;;;;;1.90;1.23;;;18.20;63.50;;;;;;5058655;28;20225;-65
2022/06/03 06:44:20;;;;;;;1.80;1.40;;;18.30;65.10;;;;;;5062894;28;20703;-65
2022/06/03 06:47:13;;;;;;;6.67;1.60;;;18.30;61.90;;;;;;5062081;28;20218;-65
2022/06/03 06:50:09;;;;;;;2.10;1.40;;;18.50;60.90;;;;;;5056924;28;20199;-65
2022/06/03 06:53:03;;;;;;;1.77;1.30;;;18.60;59.50;;;;;;5069823;28;20209;-65
2022/06/03 06:55:55;;;;;;;2.10;1.50;;;18.70;61.20;;;;;;5056493;28;20243;-65
2022/06/03 06:58:50;;;;;;;2.53;1.53;;;18.80;58.80;;;;;;5059637;28;20232;-65
2022/06/03 07:01:40;;;;;;;1.70;1.33;;;18.80;58.10;;;;;;5075437;28;20525;-65
2022/06/03 07:04:30;;;;;;;2.47;1.30;;;18.90;59.30;;;;;;5076194;28;20331;-65
2022/06/03 07:07:21;;;;;;;2.07;1.30;;;19.00;57.70;;;;;;5076861;28;20206;-66
2022/06/03 07:10:11;;;;;;;2.53;1.20;;;19.20;58.60;;;;;;5080646;28;20203;-65
2022/06/03 07:13:01;;;;;;;2.00;1.50;;;19.40;59.60;;;;;;5077375;28;20230;-65
2022/06/03 07:16:10;;;;;;;6.77;1.30;;;19.40;57.60;;;;;;5089249;28;20216;-65
2022/06/03 07:22:06;;;;;;;5.00;1.47;;;19.60;58.00;;;;;;5089208;28;20577;-65
2022/06/03 07:24:58;;;;;;;2.77;1.30;;;19.70;59.30;;;;;;5088801;28;20733;-65
2022/06/03 07:27:49;;;;;;;2.47;1.27;;;19.90;58.00;;;;;;5091609;28;20380;-65
2022/06/03 07:30:38;;;;;;;1.97;1.30;;;19.80;55.30;;;;;;5081254;28;20349;-66
2022/06/03 07:33:39;;;;;;;1.67;1.30;;;20.00;55.40;;;;;;5083543;28;20558;-65
2022/06/03 07:36:39;;;;;;;9.67;1.70;;;20.00;56.70;;;;;;5082480;28;20759;-65
2022/06/03 07:39:50;;;;;;;5.67;1.77;;;19.90;57.40;;;;;;5082837;28;20243;-65
2022/06/03 07:42:41;;;;;;;5.20;1.70;;;20.10;57.20;;;;;;5067447;28;20247;-65
2022/06/03 07:45:39;;;;;;;4.60;1.60;;;20.40;57.80;;;;;;5084092;28;20298;-66
2022/06/03 07:48:28;;;;;;;4.07;1.70;;;20.30;56.30;;;;;;5088815;28;20224;-66
2022/06/03 07:51:21;;;;;;;4.33;1.80;;;20.50;55.40;;;;;;5096552;28;20208;-65
2022/06/03 07:54:12;;;;;;;5.27;1.73;;;20.40;55.10;;;;;;5093661;28;20244;-65
2022/06/03 07:57:04;;;;;;;5.33;1.63;;;20.70;56.30;;;;;;5084347;28;20370;-65
2022/06/03 07:59:51;;;;;;;3.13;1.70;;;20.90;57.80;;;;;;5084573;28;20326;-66
2022/06/03 08:02:38;;;;;;;3.17;1.50;;;20.80;54.90;;;;;;5087328;28;20314;-65
2022/06/03 08:05:25;;;;;;;5.07;1.80;;;21.00;56.30;;;;;;5088329;28;20336;-65
2022/06/03 08:11:27;;;;;;;7.57;2.07;;;21.10;53.70;;;;;;5086771;28;20697;-65
2022/06/03 08:14:14;;;;;;;6.80;2.00;;;21.30;55.40;;;;;;5084863;28;20581;-66
2022/06/03 08:17:03;;;;;;;5.57;2.07;;;21.60;54.50;;;;;;5082734;28;20286;-66
2022/06/03 08:19:50;;;;;;;3.47;2.20;;;21.70;55.80;;;;;;5081321;28;20259;-65
2022/06/03 08:22:37;;;;;;;6.10;2.27;;;21.80;53.30;;;;;;5090392;28;20203;-66
2022/06/03 08:25:27;;;;;;;7.33;2.27;;;21.90;52.80;;;;;;5083412;28;20232;-65
2022/06/03 08:28:16;;;;;;;5.30;2.40;;;22.00;53.80;;;;;;5080022;28;20206;-65
2022/06/03 08:31:04;;;;;;;6.03;2.27;;;22.00;51.90;;;;;;5082677;28;20199;-66
2022/06/03 08:33:52;;;;;;;4.17;2.07;;;22.10;53.70;;;;;;5078992;28;20619;-65
2022/06/03 08:36:40;;;;;;;3.47;1.90;;;22.00;53.80;;;;;;5091899;28;20295;-66
2022/06/03 08:39:30;;;;;;;5.20;2.50;;;22.40;53.30;;;;;;5082285;28;20266;-66
2022/06/03 08:42:30;;;;;;;7.27;2.90;;;22.40;51.10;;;;;;5090931;28;20259;-66
2022/06/03 08:45:23;;;;;;;5.87;2.37;;;22.40;51.50;;;;;;5088522;28;20922;-66
2022/06/03 08:48:12;;;;;;;7.17;2.40;;;22.50;51.80;;;;;;5089589;28;20227;-66
2022/06/03 08:51:00;;;;;;;3.60;2.27;;;22.70;54.80;;;;;;5085357;28;20219;-66
2022/06/03 08:53:50;;;;;;;6.00;2.50;;;22.60;51.00;;;;;;5092204;28;20287;-66
2022/06/03 08:56:38;;;;;;;6.70;2.50;;;22.90;51.30;;;;;;5072331;28;20204;-66
2022/06/03 08:59:28;;;;;;;6.43;2.20;;;22.90;51.10;;;;;;5070239;28;20266;-66
2022/06/03 09:02:21;;;;;;;6.77;2.40;;;22.50;53.00;;;;;;5066024;28;20194;-66
2022/06/03 09:05:10;;;;;;;4.70;2.27;;;22.70;53.20;;;;;;5068810;28;20204;-66
2022/06/03 09:08:01;;;;;;;3.57;1.93;;;22.50;51.80;;;;;;5067730;28;20233;-66
2022/06/03 09:10:51;;;;;;;3.67;1.90;;;23.00;53.50;;;;;;5070465;28;20206;-66
2022/06/03 09:13:43;;;;;;;2.17;1.73;;;22.60;48.00;;;;;;5068013;28;20683;-66
2022/06/03 09:16:32;;;;;;;3.57;1.80;;;22.60;47.80;;;;;;5075127;28;20206;-66
2022/06/03 09:19:26;;;;;;;2.23;1.97;;;22.80;50.00;;;;;;5071361;28;20493;-66
2022/06/03 09:22:14;;;;;;;3.40;2.00;;;22.70;51.20;;;;;;5070488;28;20708;-65
2022/06/03 09:25:02;;;;;;;4.17;1.90;;;23.20;51.30;;;;;;5069254;28;20196;-65
2022/06/03 09:27:49;;;;;;;3.47;2.10;;;23.70;51.60;;;;;;5069647;28;20192;-65
2022/06/03 09:30:38;;;;;;;6.10;2.20;;;23.90;48.50;;;;;;5068674;28;20243;-65
2022/06/03 09:33:27;;;;;;;4.00;2.00;;;23.00;46.10;;;;;;5064963;28;20208;-66
2022/06/03 09:36:18;;;;;;;5.82;2.00;;;23.30;50.50;;;;;;5064406;28;20235;-65
2022/06/03 09:39:08;;;;;;;2.42;1.75;;;23.50;49.10;;;;;;5052790;28;20713;-65
2022/06/03 09:41:57;;;;;;;2.22;1.95;;;24.10;47.10;;;;;;5061700;28;20216;-66
2022/06/03 09:44:44;;;;;;;3.63;1.98;;;23.70;47.60;;;;;;5067469;28;20303;-66
2022/06/03 09:47:32;;;;;;;2.28;1.77;;;23.60;48.60;;;;;;5064252;28;20212;-66
2022/06/03 09:50:23;;;;;;;2.67;1.80;;;24.00;46.90;;;;;;5083585;28;20591;-66
2022/06/03 09:53:10;;;;;;;2.75;1.70;;;23.90;48.50;;;;;;5076919;28;20293;-66
2022/06/03 09:56:00;;;;;;;3.05;2.10;;;24.40;45.80;;;;;;5079358;28;20204;-66
2022/06/03 09:58:47;;;;;;;6.80;2.40;;;24.40;44.80;;;;;;5090108;28;20334;-66
2022/06/03 10:01:34;;;;;;;2.53;1.85;;;24.20;48.00;;;;;;5094366;28;20641;-66
2022/06/03 10:04:22;;;;;;;3.22;1.83;;;24.20;47.40;;;;;;5078839;28;20259;-66
2022/06/03 10:07:11;;;;;;;3.28;2.13;;;24.40;45.20;;;;;;5087718;28;20353;-65
2022/06/03 10:13:03;;;;;;;6.68;2.17;;;24.50;45.10;;;;;;5084532;28;20214;-66
2022/06/03 10:15:53;;;;;;;3.63;1.90;;;25.10;46.20;;;;;;5086772;28;20678;-66
2022/06/03 10:18:41;;;;;;;7.47;2.00;;;25.30;44.60;;;;;;5086802;28;20280;-66
2022/06/03 10:21:32;;;;;;;3.60;2.22;;;25.40;46.30;;;;;;5084879;28;20219;-66
2022/06/03 10:24:21;;;;;;;6.20;2.60;;;25.00;47.10;;;;;;5085492;28;20206;-66
2022/06/03 10:27:09;;;;;;;6.47;1.98;;;25.10;46.30;;;;;;5086795;28;20202;-66
2022/06/03 10:29:58;;;;;;;5.20;2.00;;;25.30;46.10;;;;;;5084784;28;20200;-66
2022/06/03 10:32:50;;;;;;;2.50;1.90;;;25.60;43.50;;;;;;5083350;28;20270;-66
2022/06/03 10:35:38;;;;;;;2.05;1.83;;;25.60;46.80;;;;;;5087990;28;20237;-66
2022/06/03 10:38:28;;;;;;;3.58;2.00;;;26.00;42.90;;;;;;5084127;28;20811;-66
2022/06/03 10:41:16;;;;;;;3.70;2.08;;;25.60;44.50;;;;;;5087088;28;20236;-66
2022/06/03 10:44:11;;;;;;;3.17;1.75;;;25.20;43.90;;;;;;5081261;28;20200;-66
2022/06/03 10:46:59;;;;;;;2.15;1.85;;;25.30;43.80;;;;;;5083354;28;20627;-65
2022/06/03 10:49:54;;;;;;;2.78;1.95;;;25.60;42.90;;;;;;5085972;28;20207;-66
2022/06/03 11:01:53;;;;;;;4.00;2.20;;;26.40;44.20;;;;;;5082644;28;20220;-66
2022/06/03 11:04:40;;;;;;;3.30;2.08;;;26.00;43.90;;;;;;5063917;28;20211;-66
2022/06/03 11:07:30;;;;;;;10.07;2.17;;;25.80;44.60;;;;;;5061084;28;20201;-66
2022/06/03 11:10:17;;;;;;;2.70;2.00;;;26.20;42.80;;;;;;5058718;28;20197;-66
2022/06/03 11:13:06;;;;;;;7.55;2.10;;;26.80;42.60;;;;;;5062581;28;20213;-66
2022/06/03 11:15:54;;;;;;;1.80;1.70;;;26.00;42.80;;;;;;5062462;28;20291;-66
2022/06/03 11:18:42;;;;;;;6.45;1.90;;;25.50;43.40;;;;;;5062606;28;20200;-66
2022/06/03 11:21:30;;;;;;;1.95;1.77;;;25.60;42.90;;;;;;5059274;28;20296;-66
2022/06/03 11:24:17;;;;;;;2.28;1.90;;;26.20;43.90;;;;;;5063964;28;20253;-66
2022/06/03 11:27:05;;;;;;;8.68;1.77;;;26.20;43.50;;;;;;5062089;28;20957;-66
2022/06/03 11:29:53;;;;;;;2.85;1.63;;;26.60;41.40;;;;;;5062366;28;20689;-66
2022/06/03 11:32:41;;;;;;;5.00;1.80;;;26.50;42.20;;;;;;5062905;28;20199;-66
2022/06/03 11:35:29;;;;;;;5.03;1.63;;;26.60;44.20;;;;;;5053249;28;20279;-66
2022/06/03 11:38:19;;;;;;;7.07;1.60;;;26.30;40.90;;;;;;5054533;28;20231;-66
2022/06/03 11:41:07;;;;;;;3.30;1.50;;;25.80;39.80;;;;;;5062212;28;20260;-66
2022/06/03 11:43:57;;;;;;;1.77;1.50;;;25.90;40.60;;;;;;5061597;28;20212;-66
2022/06/03 11:46:47;;;;;;;3.83;1.70;;;26.00;40.30;;;;;;5061148;28;20647;-66
2022/06/03 11:49:35;;;;;;;3.78;1.30;;;26.50;41.40;;;;;;5053236;28;20210;-66
2022/06/03 11:52:23;;;;;;;3.33;1.80;;;26.00;39.80;;;;;;5062572;28;20257;-66
2022/06/03 11:55:10;;;;;;;4.68;1.60;;;25.90;38.40;;;;;;5064839;28;20204;-66
2022/06/03 11:57:59;;;;;;;2.17;1.42;;;25.30;38.40;;;;;;5060549;28;20272;-66
2022/06/03 12:00:48;;;;;;;2.45;1.65;;;26.40;39.70;;;;;;5066636;28;20276;-66
2022/06/03 12:03:38;;;;;;;1.50;1.40;;;26.50;38.10;;;;;;5065307;28;20765;-66
2022/06/03 12:06:30;;;;;;;1.52;1.40;;;27.00;38.10;;;;;;5062034;28;20203;-66
2022/06/03 12:09:24;;;;;;;2.88;1.60;;;26.10;38.60;;;;;;5060196;28;20200;-66
2022/06/03 12:16:05;;;;;;;4.22;1.55;;;26.30;37.70;;;;;;5050886;28;20208;-66
2022/06/03 12:19:01;;;;;;;1.83;1.60;;;26.60;39.70;;;;;;5053106;28;20228;-66
2022/06/03 12:21:57;;;;;;;3.03;1.38;;;26.80;36.60;;;;;;5068389;28;20215;-66
2022/06/03 12:24:46;;;;;;;4.68;1.67;;;26.40;37.70;;;;;;5068568;28;20288;-66
2022/06/03 12:27:35;;;;;;;2.97;1.50;;;26.40;37.90;;;;;;5069688;28;20969;-66
2022/06/03 12:30:43;;;;;;;2.35;1.48;;;27.40;37.20;;;;;;5067818;28;20201;-66
2022/06/03 12:33:33;;;;;;;3.53;1.73;;;26.90;35.00;;;;;;5084538;28;20197;-66
2022/06/03 12:36:39;;;;;;;5.72;1.50;;;26.50;37.60;;;;;;5069309;28;20279;-66
2022/06/03 12:39:28;;;;;;;1.48;1.38;;;27.30;36.50;;;;;;5068405;28;20224;-66
2022/06/03 12:42:35;;;;;;;2.78;1.40;;;28.30;35.10;;;;;;5069352;28;20222;-66
2022/06/03 12:45:30;;;;;;;5.70;1.60;;;28.30;35.30;;;;;;5068755;28;20201;-66
2022/06/03 12:48:37;;;;;;;5.00;1.45;;;27.90;34.40;;;;;;5067933;28;20678;-66
2022/06/03 12:51:25;;;;;;;2.80;1.58;;;28.40;37.70;;;;;;5069077;28;20200;-66
2022/06/03 12:54:16;;;;;;;4.13;1.70;;;27.00;34.80;;;;;;5068921;28;20236;-66
2022/06/03 12:57:08;;;;;;;1.50;1.40;;;28.00;34.90;;;;;;5067668;28;20203;-66
2022/06/03 12:59:56;;;;;;;3.28;1.48;;;28.00;33.80;;;;;;5066156;28;20267;-66
2022/06/03 13:02:49;;;;;;;4.22;1.40;;;27.80;35.40;;;;;;5064157;28;20761;-66
2022/06/03 13:05:39;;;;;;;2.38;1.60;;;27.50;35.40;;;;;;5063864;28;20683;-66
2022/06/03 13:09:34;;;;;;;5.28;1.65;;;27.20;36.70;;;;;;5061312;28;20287;-66
2022/06/03 13:11:46;;;;;;;5.55;1.73;;;27.60;38.60;;;;;;5064322;28;20243;-66
2022/06/03 13:14:35;;;;;;;5.18;1.80;;;27.20;34.90;;;;;;5068136;28;20205;-66
2022/06/03 13:17:57;;;;;;;3.72;1.60;;;26.70;38.10;;;;;;5065947;28;20227;-66
2022/06/03 13:20:45;;;;;;;2.60;1.42;;;27.50;39.00;;;;;;5062254;28;20197;-66
2022/06/03 13:23:34;;;;;;;1.70;1.60;;;28.10;38.10;;;;;;5056663;28;20238;-66
2022/06/03 13:27:05;;;;;;;7.38;1.38;;;28.10;35.20;;;;;;5054736;28;20237;-66
2022/06/03 13:30:13;;;;;;;2.70;1.63;;;28.10;35.60;;;;;;5063996;28;20200;-66
2022/06/03 13:33:01;;;;;;;2.60;1.58;;;27.50;42.00;;;;;;5058410;28;20231;-66
2022/06/03 13:36:04;;;;;;;6.93;1.67;;;27.20;37.70;;;;;;5073438;28;20211;-66
2022/06/03 13:38:51;;;;;;;3.65;1.58;;;27.50;38.20;;;;;;5063643;28;20227;-66
2022/06/03 13:44:48;;;;;;;4.65;1.45;;;27.30;38.70;;;;;;5066409;28;20199;-66
2022/06/03 13:47:37;;;;;;;3.65;1.70;;;28.40;36.70;;;;;;5065950;28;20196;-66
2022/06/03 13:50:35;;;;;;;2.65;1.80;;;28.10;40.60;;;;;;5066382;28;20208;-66
2022/06/03 13:53:27;;;;;;;4.35;1.80;;;29.00;40.20;;;;;;5066762;28;20568;-66
2022/06/03 13:56:19;;;;;;;4.53;1.65;;;30.00;38.00;;;;;;5065886;28;20208;-66
2022/06/03 13:59:14;;;;;;;6.80;2.05;;;28.70;35.30;;;;;;5067852;28;20232;-66
2022/06/03 14:02:01;;;;;;;5.10;1.80;;;27.30;36.60;;;;;;5066713;28;20203;-66
2022/06/03 14:04:55;;;;;;;1.83;1.70;;;28.00;37.90;;;;;;5073494;28;20303;-66
2022/06/03 14:07:46;;;;;;;2.08;1.60;;;28.10;36.30;;;;;;5068249;28;20812;-66
2022/06/03 14:10:36;;;;;;;2.85;1.65;;;28.10;39.30;;;;;;5055508;28;20279;-66
2022/06/03 14:13:25;;;;;;;3.15;1.80;;;29.00;39.60;;;;;;5065869;28;20203;-66
2022/06/03 14:16:13;;;;;;;3.53;1.90;;;29.00;34.90;;;;;;5067016;28;20207;-66
2022/06/03 14:19:21;;;;;;;2.88;1.60;;;28.80;36.40;;;;;;5064639;28;20201;-66
2022/06/03 14:22:21;;;;;;;4.32;1.90;;;29.30;36.10;;;;;;5064139;28;20307;-66
2022/06/03 14:25:15;;;;;;;8.52;1.83;;;28.10;36.40;;;;;;5057866;28;20208;-66
2022/06/03 14:28:08;;;;;;;5.25;1.77;;;28.00;36.90;;;;;;5075348;28;20773;-66
2022/06/03 14:30:58;;;;;;;6.78;1.90;;;27.80;40.40;;;;;;5073121;28;20197;-66
2022/06/03 14:33:47;;;;;;;5.00;2.00;;;28.80;36.20;;;;;;5071536;28;20776;-66
2022/06/03 14:36:34;;;;;;;4.53;1.90;;;28.30;38.80;;;;;;5068564;28;20362;-66
2022/06/03 14:39:23;;;;;;;5.40;1.65;;;28.50;38.70;;;;;;5066185;28;20311;-66
2022/06/03 14:42:12;;;;;;;1.95;1.75;;;27.80;37.40;;;;;;5070549;28;20266;-66
2022/06/03 14:44:59;;;;;;;2.95;1.70;;;27.20;37.90;;;;;;5063899;28;20295;-66
2022/06/03 14:47:47;;;;;;;2.05;1.60;;;27.90;36.40;;;;;;5066192;28;20235;-66
2022/06/03 14:50:36;;;;;;;3.67;1.80;;;27.70;35.80;;;;;;5073128;28;20307;-66
2022/06/03 14:53:25;;;;;;;2.53;1.60;;;28.90;38.00;;;;;;5072328;28;20203;-66
2022/06/03 14:56:26;;;;;;;2.13;1.75;;;29.60;38.60;;;;;;5062242;28;20533;-66
2022/06/03 14:59:25;;;;;;;2.03;1.50;;;29.70;35.30;;;;;;5056328;28;20235;-67
2022/06/03 15:02:16;;;;;;;3.38;1.90;;;30.30;33.20;;;;;;5058544;28;20243;-66
2022/06/03 15:05:05;;;;;;;1.73;1.50;;;28.30;37.10;;;;;;5060545;28;20196;-66
2022/06/03 15:07:56;;;;;;;1.77;1.65;;;29.10;36.80;;;;;;5061218;28;20205;-66
2022/06/03 15:10:47;;;;;;;3.83;1.60;;;29.30;34.20;;;;;;5061304;28;20277;-66
2022/06/03 15:13:36;;;;;;;2.55;1.85;;;28.80;36.80;;;;;;5058658;28;20335;-66
2022/06/03 15:16:23;;;;;;;6.28;1.98;;;30.00;38.30;;;;;;5065029;28;20201;-66
2022/06/03 15:19:10;;;;;;;3.20;1.80;;;30.90;32.50;;;;;;5061604;28;20343;-67
2022/06/03 15:21:57;;;;;;;2.70;1.90;;;30.40;35.10;;;;;;5062524;28;20223;-66
2022/06/03 15:24:53;;;;;;;3.03;1.58;;;30.60;33.60;;;;;;5062006;28;20299;-67
2022/06/03 15:27:42;;;;;;;5.72;1.70;;;31.40;33.00;;;;;;5058791;28;20204;-66
2022/06/03 15:30:34;;;;;;;3.22;1.58;;;31.60;31.50;;;;;;5066719;28;20203;-66
2022/06/03 15:33:22;;;;;;;3.90;1.70;;;31.80;31.80;;;;;;5060621;28;20204;-66
2022/06/03 15:36:17;;;;;;;4.30;1.58;;;31.90;29.60;;;;;;5061032;28;20193;-67
2022/06/03 15:39:18;;;;;;;2.58;1.60;;;30.80;32.40;;;;;;5062983;28;20224;-66
2022/06/03 15:42:10;;;;;;;2.22;1.60;;;29.70;35.10;;;;;;5062713;28;20216;-66
2022/06/03 15:45:01;;;;;;;6.32;1.80;;;30.40;35.30;;;;;;5057141;28;20212;-66
2022/06/03 15:47:50;;;;;;;4.50;1.80;;;32.20;33.70;;;;;;5064823;28;20201;-67
2022/06/03 15:50:38;;;;;;;4.15;1.60;;;33.50;29.80;;;;;;5063294;28;20355;-67
2022/06/03 15:53:26;;;;;;;5.57;1.67;;;32.20;30.20;;;;;;5056826;28;20580;-67
2022/06/03 15:56:30;;;;;;;9.73;1.50;;;33.00;32.40;;;;;;5060480;28;20204;-67
2022/06/03 15:59:22;;;;;;;2.90;1.73;;;33.10;30.00;;;;;;5055463;28;20609;-67
2022/06/03 16:02:11;;;;;;;5.40;1.63;;;33.90;30.40;;;;;;5064411;28;20221;-67
2022/06/03 16:05:03;;;;;;;3.08;1.55;;;34.50;28.90;;;;;;5059337;28;20200;-67